createdAt,value
2019-05-02T00:01:34.138Z,9.61
2019-05-02T00:02:34.218Z,9.58
2019-05-02T00:04:27.207Z,9.47
2019-05-02T00:05:31.696Z,9.54
2019-05-02T00:07:21.738Z,9.54
2019-05-02T00:08:20.278Z,9.43
2019-05-02T00:10:13.290Z,9.46
2019-05-02T00:11:13.313Z,9.41
2019-05-02T00:13:06.290Z,9.44
2019-05-02T00:14:06.368Z,9.39
2019-05-02T00:15:59.365Z,9.22
2019-05-02T00:16:59.398Z,9.26
2019-05-02T00:18:52.373Z,9.28
2019-05-02T00:19:52.430Z,9.21
2019-05-02T00:21:45.443Z,9.26
2019-05-02T00:22:47.934Z,9.22
2019-05-02T00:24:39.231Z,9.25
2019-05-02T00:25:38.508Z,9.16
2019-05-02T00:27:32.809Z,9.21
2019-05-02T00:28:31.549Z,9.23
2019-05-02T00:30:24.530Z,9.22
2019-05-02T00:31:24.597Z,9.19
2019-05-02T00:33:17.595Z,9.16
2019-05-02T00:34:17.634Z,9.14
2019-05-02T00:36:10.602Z,9.16
2019-05-02T00:37:10.658Z,9.08
2019-05-02T00:39:09.499Z,9.16
2019-05-02T00:40:05.186Z,9.08
2019-05-02T00:42:11.493Z,9.04
2019-05-02T00:42:59.595Z,8.99
2019-05-02T00:44:51.231Z,8.92
2019-05-02T00:45:55.115Z,8.89
2019-05-02T00:47:47.798Z,9.02
2019-05-02T00:48:44.305Z,9.02
2019-05-02T00:50:40.264Z,9.19
2019-05-02T00:51:37.442Z,9.22
2019-05-02T00:53:30.338Z,9.23
2019-05-02T00:54:30.378Z,9.18
2019-05-02T00:56:23.383Z,9.34
2019-05-02T00:57:23.417Z,9.40
2019-05-02T00:59:16.398Z,9.47
2019-05-02T01:00:18.341Z,9.47
2019-05-02T01:02:09.459Z,9.47
2019-05-02T01:03:11.130Z,9.48
2019-05-02T01:05:03.262Z,9.58
2019-05-02T01:06:02.524Z,9.51
2019-05-02T01:07:56.076Z,9.51
2019-05-02T01:08:55.559Z,9.58
2019-05-02T01:10:52.153Z,9.66
2019-05-02T01:11:48.609Z,9.58
2019-05-02T01:13:41.617Z,9.62
2019-05-02T01:14:41.643Z,9.58
2019-05-02T01:16:34.635Z,9.59
2019-05-02T01:17:34.699Z,9.59
2019-05-02T01:19:27.703Z,9.73
2019-05-02T01:20:29.285Z,9.64
2019-05-02T01:22:20.705Z,9.59
2019-05-02T01:23:23.047Z,9.68
2019-05-02T01:25:15.688Z,9.65
2019-05-02T01:26:13.802Z,9.62
2019-05-02T01:28:06.780Z,9.64
2019-05-02T01:29:06.840Z,9.62
2019-05-02T01:30:59.863Z,9.62
2019-05-02T01:31:59.893Z,9.66
2019-05-02T01:33:52.873Z,9.72
2019-05-02T01:34:54.431Z,9.62
2019-05-02T01:36:45.940Z,9.72
2019-05-02T01:37:45.967Z,9.68
2019-05-02T01:39:42.599Z,9.79
2019-05-02T01:40:39.019Z,9.79
2019-05-02T01:42:39.672Z,9.79
2019-05-02T01:43:32.050Z,9.79
2019-05-02T01:45:25.033Z,9.86
2019-05-02T01:46:25.123Z,9.80
2019-05-02T01:48:18.084Z,9.79
2019-05-02T01:49:21.830Z,9.76
2019-05-02T01:51:12.133Z,9.77
2019-05-02T01:52:11.158Z,9.80
2019-05-02T01:54:05.006Z,9.76
2019-05-02T01:55:04.196Z,9.73
2019-05-02T01:56:57.170Z,9.72
2019-05-02T01:57:57.233Z,9.74
2019-05-02T01:59:50.258Z,9.62
2019-05-02T02:00:50.513Z,9.76
2019-05-02T02:02:43.265Z,9.69
2019-05-02T02:03:45.551Z,9.73
2019-05-02T02:05:36.343Z,9.61
2019-05-02T02:06:38.856Z,9.61
2019-05-02T02:08:32.554Z,9.62
2019-05-02T02:09:29.399Z,9.64
2019-05-02T02:11:22.385Z,9.66
2019-05-02T02:12:22.441Z,9.73
2019-05-02T02:14:18.540Z,9.65
2019-05-02T02:15:15.491Z,9.64
2019-05-02T02:17:10.099Z,9.73
2019-05-02T02:18:08.512Z,9.58
2019-05-02T02:20:01.520Z,9.68
2019-05-02T02:21:01.551Z,9.61
2019-05-02T02:22:54.532Z,9.62
2019-05-02T02:23:54.589Z,9.64
2019-05-02T02:25:47.582Z,9.64
2019-05-02T02:26:48.232Z,9.62
2019-05-02T02:28:40.632Z,9.54
2019-05-02T02:29:44.038Z,9.59
2019-05-02T02:31:39.697Z,9.68
2019-05-02T02:32:33.698Z,9.68
2019-05-02T02:34:28.697Z,9.64
2019-05-02T02:35:26.731Z,9.61
2019-05-02T02:37:19.714Z,9.69
2019-05-02T02:38:19.767Z,9.56
2019-05-02T02:40:12.770Z,9.59
2019-05-02T02:41:14.793Z,9.59
2019-05-02T02:43:30.270Z,9.58
2019-05-02T02:44:05.847Z,9.55
2019-05-02T02:45:59.697Z,9.51
2019-05-02T02:46:58.886Z,9.55
2019-05-02T02:48:51.881Z,9.50
2019-05-02T02:49:55.756Z,9.50
2019-05-02T02:51:44.964Z,9.56
2019-05-02T02:52:47.026Z,9.61
2019-05-02T02:54:43.305Z,9.59
2019-05-02T02:55:38.017Z,9.61
2019-05-02T02:57:31.027Z,9.61
2019-05-02T02:58:31.060Z,9.64
2019-05-02T03:00:24.046Z,9.73
2019-05-02T03:01:29.101Z,9.73
2019-05-02T03:03:20.940Z,9.74
2019-05-02T03:04:17.142Z,9.69
2019-05-02T03:06:10.112Z,9.72
2019-05-02T03:07:10.170Z,9.69
2019-05-02T03:09:03.166Z,9.74
2019-05-02T03:10:06.213Z,9.66
2019-05-02T03:12:01.453Z,9.69
2019-05-02T03:12:56.239Z,9.72
2019-05-02T03:14:49.547Z,9.64
2019-05-02T03:15:49.280Z,9.72
2019-05-02T03:17:42.281Z,9.68
2019-05-02T03:18:43.383Z,9.62
2019-05-02T03:20:40.610Z,9.69
2019-05-02T03:21:35.358Z,9.68
2019-05-02T03:23:28.335Z,9.73
2019-05-02T03:24:28.399Z,9.74
2019-05-02T03:26:21.394Z,9.79
2019-05-02T03:27:21.443Z,9.69
2019-05-02T03:29:14.410Z,9.74
2019-05-02T03:30:29.927Z,9.74
2019-05-02T03:32:30.916Z,9.73
2019-05-02T03:33:11.633Z,9.76
2019-05-02T03:35:00.522Z,9.72
2019-05-02T03:36:00.563Z,9.76
2019-05-02T03:37:53.568Z,9.66
2019-05-02T03:38:53.595Z,9.72
2019-05-02T03:40:46.576Z,9.76
2019-05-02T03:41:46.637Z,9.73
2019-05-02T03:43:39.645Z,9.72
2019-05-02T03:44:39.672Z,9.64
2019-05-02T03:46:32.647Z,9.76
2019-05-02T03:47:36.648Z,9.74
2019-05-02T03:49:25.721Z,9.76
2019-05-02T03:50:32.707Z,9.80
2019-05-02T03:52:18.738Z,9.80
2019-05-02T03:53:25.353Z,9.80
2019-05-02T03:55:11.795Z,9.82
2019-05-02T03:56:14.154Z,9.82
2019-05-02T03:58:13.269Z,9.77
2019-05-02T03:59:04.874Z,9.84
2019-05-02T04:01:01.714Z,9.83
2019-05-02T04:01:57.924Z,9.83
2019-05-02T04:03:50.891Z,9.74
2019-05-02T04:04:54.292Z,9.76
2019-05-02T04:06:43.958Z,9.72
2019-05-02T04:07:43.991Z,9.77
2019-05-02T04:09:39.532Z,9.76
2019-05-02T04:10:37.030Z,9.76
2019-05-02T04:12:32.713Z,9.76
2019-05-02T04:13:35.646Z,9.82
2019-05-02T04:15:28.831Z,9.80
2019-05-02T04:16:23.102Z,9.80
2019-05-02T04:18:17.941Z,9.72
2019-05-02T04:19:16.142Z,9.76
2019-05-02T04:21:09.159Z,9.77
2019-05-02T04:22:11.814Z,9.79
2019-05-02T04:24:12.946Z,9.76
2019-05-02T04:25:06.095Z,9.76
2019-05-02T04:26:56.342Z,9.73
2019-05-02T04:27:55.262Z,9.72
2019-05-02T04:29:48.269Z,9.76
2019-05-02T04:30:51.079Z,9.73
2019-05-02T04:32:43.150Z,9.77
2019-05-02T04:33:41.357Z,9.79
2019-05-02T04:35:35.249Z,9.76
2019-05-02T04:36:34.385Z,9.80
2019-05-02T04:38:39.128Z,9.83
2019-05-02T04:39:28.613Z,9.77
2019-05-02T04:41:28.674Z,9.79
2019-05-02T04:42:23.259Z,9.87
2019-05-02T04:44:13.976Z,9.82
2019-05-02T04:45:26.317Z,9.80
2019-05-02T04:47:17.000Z,9.77
2019-05-02T04:48:08.432Z,9.89
2019-05-02T04:50:00.047Z,9.89
2019-05-02T04:51:10.101Z,9.87
2019-05-02T04:52:54.124Z,9.87
2019-05-02T04:53:53.125Z,9.83
2019-05-02T04:55:52.052Z,9.94
2019-05-02T04:56:49.567Z,9.92
2019-05-02T04:58:40.643Z,9.91
2019-05-02T04:59:39.731Z,9.87
2019-05-02T05:01:42.062Z,9.89
2019-05-02T05:02:36.728Z,9.89
2019-05-02T05:04:27.501Z,9.98
2019-05-02T05:05:27.364Z,9.95
2019-05-02T05:07:18.299Z,9.95
2019-05-02T05:08:26.512Z,9.99
2019-05-02T05:10:11.316Z,10.02
2019-05-02T05:11:14.005Z,9.99
2019-05-02T05:13:04.381Z,10.05
2019-05-02T05:14:04.408Z,9.99
2019-05-02T05:15:57.469Z,10.12
2019-05-02T05:16:58.048Z,10.12
2019-05-02T05:18:53.090Z,10.09
2019-05-02T05:19:50.478Z,10.13
2019-05-02T05:21:43.477Z,10.10
2019-05-02T05:22:44.446Z,10.10
2019-05-02T05:24:38.505Z,10.13
2019-05-02T05:25:37.843Z,10.15
2019-05-02T05:27:29.587Z,10.13
2019-05-02T05:28:29.615Z,10.09
2019-05-02T05:30:22.593Z,10.13
2019-05-02T05:31:23.943Z,10.09
2019-05-02T05:33:18.165Z,10.13
2019-05-02T05:34:17.351Z,10.12
2019-05-02T05:36:08.665Z,10.13
2019-05-02T05:37:13.263Z,10.12
2019-05-02T05:39:02.952Z,10.16
2019-05-02T05:40:02.263Z,10.15
2019-05-02T05:41:55.246Z,10.15
2019-05-02T05:42:57.248Z,10.15
2019-05-02T05:44:48.468Z,10.13
2019-05-02T05:45:55.905Z,10.09
2019-05-02T05:47:41.345Z,10.20
2019-05-02T05:48:41.406Z,10.22
2019-05-02T05:50:39.758Z,10.30
2019-05-02T05:51:34.442Z,10.26
2019-05-02T05:53:28.177Z,10.25
2019-05-02T05:54:28.322Z,10.34
2019-05-02T05:56:20.485Z,10.31
2019-05-02T05:57:21.238Z,10.35
2019-05-02T05:59:13.490Z,10.41
2019-05-02T06:00:17.418Z,10.31
2019-05-02T06:02:13.251Z,10.38
2019-05-02T06:03:13.146Z,10.40
2019-05-02T06:05:03.585Z,10.38
2019-05-02T06:05:59.623Z,10.40
2019-05-02T06:07:52.598Z,10.42
2019-05-02T06:08:54.100Z,10.44
2019-05-02T06:10:45.677Z,10.57
2019-05-02T06:11:45.877Z,10.53
2019-05-02T06:13:43.103Z,10.56
2019-05-02T06:14:38.728Z,10.51
2019-05-02T06:16:31.759Z,10.60
2019-05-02T06:17:31.789Z,10.64
2019-05-02T06:19:24.786Z,10.74
2019-05-02T06:20:25.695Z,10.74
2019-05-02T06:22:24.450Z,10.75
2019-05-02T06:23:17.867Z,10.86
2019-05-02T06:25:10.846Z,10.63
2019-05-02T06:26:13.468Z,10.76
2019-05-02T06:28:05.305Z,10.68
2019-05-02T06:29:03.956Z,10.67
2019-05-02T06:30:56.937Z,10.67
2019-05-02T06:31:56.973Z,10.75
2019-05-02T06:33:49.969Z,10.61
2019-05-02T06:34:50.014Z,10.60
2019-05-02T06:36:43.016Z,10.69
2019-05-02T06:37:45.377Z,10.72
2019-05-02T06:39:36.053Z,10.71
2019-05-02T06:40:39.359Z,10.63
2019-05-02T06:42:32.686Z,10.87
2019-05-02T06:43:29.122Z,10.84
2019-05-02T06:45:22.118Z,10.87
2019-05-02T06:46:27.519Z,10.84
2019-05-02T06:48:17.718Z,11.00
2019-05-02T06:49:15.198Z,11.02
2019-05-02T06:51:10.992Z,11.14
2019-05-02T06:52:08.232Z,11.23
2019-05-02T06:54:01.217Z,11.19
2019-05-02T06:55:01.276Z,11.18
2019-05-02T06:56:54.272Z,11.15
2019-05-02T06:57:57.112Z,11.19
2019-05-02T06:59:49.889Z,11.19
2019-05-02T07:00:57.812Z,11.18
2019-05-02T07:02:40.376Z,11.22
2019-05-02T07:03:41.319Z,11.22
2019-05-02T07:05:33.417Z,11.40
2019-05-02T07:06:42.151Z,11.36
2019-05-02T07:08:26.616Z,11.37
2019-05-02T07:09:39.614Z,11.37
2019-05-02T07:11:19.508Z,11.44
2019-05-02T07:12:19.545Z,11.47
2019-05-02T07:14:13.929Z,11.54
2019-05-02T07:15:12.623Z,11.66
2019-05-02T07:17:05.992Z,11.78
2019-05-02T07:18:10.559Z,11.94
2019-05-02T07:19:58.983Z,12.07
2019-05-02T07:20:58.682Z,12.65
2019-05-02T07:22:51.685Z,12.64
2019-05-02T07:23:53.540Z,12.49
2019-05-02T07:25:45.279Z,12.45
2019-05-02T07:26:44.762Z,12.57
2019-05-02T07:28:40.297Z,12.45
2019-05-02T07:29:37.817Z,12.58
2019-05-02T07:31:30.813Z,12.49
2019-05-02T07:32:30.845Z,12.54
2019-05-02T07:34:23.831Z,12.82
2019-05-02T07:35:24.522Z,12.91
2019-05-02T07:37:16.895Z,13.00
2019-05-02T07:38:20.216Z,12.98
2019-05-02T07:40:12.139Z,13.25
2019-05-02T07:41:09.976Z,13.16
2019-05-02T07:43:02.991Z,13.30
2019-05-02T07:44:04.446Z,13.52
2019-05-02T07:45:55.995Z,13.99
2019-05-02T07:46:56.879Z,13.92
2019-05-02T07:48:54.511Z,14.05
2019-05-02T07:49:49.093Z,14.08
2019-05-02T07:51:42.077Z,15.07
2019-05-02T07:52:42.139Z,15.77
2019-05-02T07:54:35.137Z,16.16
2019-05-02T07:55:40.224Z,15.44
2019-05-02T07:57:30.507Z,15.07
2019-05-02T07:58:28.225Z,15.19
2019-05-02T08:00:21.211Z,15.70
2019-05-02T08:01:21.274Z,15.40
2019-05-02T08:03:14.284Z,14.89
2019-05-02T08:04:14.323Z,14.40
2019-05-02T08:06:07.312Z,14.17
2019-05-02T08:07:07.368Z,14.29
2019-05-02T08:09:01.666Z,14.77
2019-05-02T08:10:00.416Z,14.92
2019-05-02T08:11:53.412Z,15.11
2019-05-02T08:12:53.468Z,15.24
2019-05-02T08:14:46.477Z,15.39
2019-05-02T08:15:50.907Z,15.21
2019-05-02T08:17:39.523Z,15.37
2019-05-02T08:18:39.565Z,15.57
2019-05-02T08:20:32.560Z,15.91
2019-05-02T08:21:33.954Z,16.39
2019-05-02T08:23:26.147Z,18.29
2019-05-02T08:24:25.658Z,19.08
2019-05-02T08:26:21.876Z,19.54
2019-05-02T08:27:18.718Z,19.37
2019-05-02T08:29:11.711Z,20.70
2019-05-02T08:30:11.775Z,20.81
2019-05-02T08:32:04.788Z,21.29
2019-05-02T08:33:04.832Z,20.59
2019-05-02T08:34:57.842Z,19.92
2019-05-02T08:35:57.894Z,19.92
2019-05-02T08:37:50.916Z,18.58
2019-05-02T08:38:53.604Z,18.55
2019-05-02T08:40:47.925Z,20.39
2019-05-02T08:41:44.022Z,20.37
2019-05-02T08:43:40.134Z,20.56
2019-05-02T08:44:49.595Z,20.31
2019-05-02T08:46:30.086Z,19.39
2019-05-02T08:47:30.590Z,19.30
2019-05-02T08:49:23.187Z,19.29
2019-05-02T08:50:27.110Z,19.15
2019-05-02T08:52:16.211Z,19.69
2019-05-02T08:53:19.858Z,19.45
2019-05-02T08:55:10.153Z,19.15
2019-05-02T08:56:09.340Z,18.88
2019-05-02T08:58:06.747Z,18.95
2019-05-02T08:59:02.400Z,19.66
2019-05-02T09:00:55.393Z,20.97
2019-05-02T09:01:55.457Z,20.99
2019-05-02T09:03:54.982Z,21.54
2019-05-02T09:04:58.255Z,22.14
2019-05-02T09:06:41.538Z,22.59
2019-05-02T09:07:43.002Z,22.54
2019-05-02T09:09:34.617Z,22.55
2019-05-02T09:10:37.185Z,22.28
2019-05-02T09:12:27.702Z,23.02
2019-05-02T09:13:29.521Z,23.46
2019-05-02T09:15:22.351Z,21.82
2019-05-02T09:16:28.116Z,21.30
2019-05-02T09:18:13.855Z,21.57
2019-05-02T09:19:21.295Z,21.02
2019-05-02T09:21:06.937Z,20.52
2019-05-02T09:22:07.710Z,19.91
2019-05-02T09:24:02.342Z,19.44
2019-05-02T09:25:02.119Z,19.33
2019-05-02T09:26:53.072Z,18.70
2019-05-02T09:27:53.117Z,18.73
2019-05-02T09:29:46.114Z,18.74
2019-05-02T09:30:46.909Z,18.77
2019-05-02T09:32:39.222Z,18.74
2019-05-02T09:33:42.438Z,18.75
2019-05-02T09:35:32.848Z,18.28
2019-05-02T09:36:32.403Z,18.34
2019-05-02T09:38:25.887Z,18.25
2019-05-02T09:39:27.344Z,18.38
2019-05-02T09:41:19.474Z,18.45
2019-05-02T09:42:19.186Z,18.41
2019-05-02T09:44:14.577Z,18.55
2019-05-02T09:45:12.290Z,18.47
2019-05-02T09:47:05.025Z,18.59
2019-05-02T09:48:07.890Z,18.49
2019-05-02T09:49:58.058Z,18.78
2019-05-02T09:50:58.575Z,18.86
2019-05-02T09:52:52.407Z,18.78
2019-05-02T09:53:52.394Z,18.65
2019-05-02T09:55:50.416Z,18.50
2019-05-02T09:56:44.235Z,18.11
2019-05-02T09:58:37.244Z,18.08
2019-05-02T09:59:37.288Z,18.15
2019-05-02T10:01:31.692Z,18.03
2019-05-02T10:02:32.427Z,18.13
2019-05-02T10:04:23.342Z,18.00
2019-05-02T10:05:23.404Z,17.95
2019-05-02T10:07:16.413Z,18.15
2019-05-02T10:08:16.458Z,18.08
2019-05-02T10:10:09.443Z,18.16
2019-05-02T10:11:11.638Z,18.04
2019-05-02T10:13:02.876Z,18.10
2019-05-02T10:14:02.595Z,18.07
2019-05-02T10:15:55.583Z,18.16
2019-05-02T10:16:57.674Z,18.03
2019-05-02T10:18:48.607Z,18.28
2019-05-02T10:19:52.754Z,18.16
2019-05-02T10:21:42.231Z,18.20
2019-05-02T10:22:43.718Z,18.26
2019-05-02T10:24:34.717Z,18.47
2019-05-02T10:25:38.731Z,18.44
2019-05-02T10:27:27.790Z,18.44
2019-05-02T10:28:27.827Z,18.52
2019-05-02T10:30:21.702Z,18.41
2019-05-02T10:31:21.872Z,18.28
2019-05-02T10:33:13.891Z,18.22
2019-05-02T10:34:17.498Z,18.29
2019-05-02T10:36:11.219Z,18.29
2019-05-02T10:37:07.016Z,18.55
2019-05-02T10:39:01.749Z,18.66
2019-05-02T10:40:02.435Z,18.83
2019-05-02T10:41:53.560Z,18.77
2019-05-02T10:42:53.598Z,18.66
2019-05-02T10:44:46.590Z,18.49
2019-05-02T10:45:47.482Z,18.50
2019-05-02T10:47:39.656Z,18.60
2019-05-02T10:48:39.705Z,18.83
2019-05-02T10:50:32.953Z,18.75
2019-05-02T10:51:32.755Z,18.73
2019-05-02T10:53:25.747Z,18.81
2019-05-02T10:54:27.865Z,18.86
2019-05-02T10:56:18.806Z,19.14
2019-05-02T10:57:18.860Z,19.11
2019-05-02T10:59:11.927Z,19.39
2019-05-02T11:00:12.075Z,19.36
2019-05-02T11:02:04.941Z,19.11
2019-05-02T11:03:05.003Z,19.12
2019-05-02T11:04:58.017Z,19.09
2019-05-02T11:06:03.001Z,19.12
2019-05-02T11:07:52.300Z,19.12
2019-05-02T11:08:52.405Z,19.19
2019-05-02T11:10:44.136Z,19.12
2019-05-02T11:11:44.154Z,19.19
2019-05-02T11:13:37.172Z,19.04
2019-05-02T11:14:37.209Z,18.95
2019-05-02T11:16:32.039Z,18.93
2019-05-02T11:17:32.367Z,19.04
2019-05-02T11:19:23.276Z,18.81
2019-05-02T11:20:23.337Z,18.68
2019-05-02T11:22:16.345Z,18.78
2019-05-02T11:23:16.385Z,18.80
2019-05-02T11:25:09.373Z,18.83
2019-05-02T11:26:09.439Z,18.86
2019-05-02T11:28:06.966Z,19.34
2019-05-02T11:29:03.159Z,19.31
2019-05-02T11:30:56.939Z,19.11
2019-05-02T11:31:55.551Z,19.27
2019-05-02T11:33:48.597Z,19.09
2019-05-02T11:34:48.671Z,19.19
2019-05-02T11:36:42.154Z,18.99
2019-05-02T11:37:42.266Z,18.96
2019-05-02T11:39:43.747Z,19.02
2019-05-02T11:40:34.716Z,18.95
2019-05-02T11:42:27.758Z,19.24
2019-05-02T11:43:27.809Z,19.39
2019-05-02T11:45:22.610Z,19.62
2019-05-02T11:46:22.087Z,19.56
2019-05-02T11:48:14.055Z,19.71
2019-05-02T11:49:13.879Z,19.86
2019-05-02T11:51:07.424Z,20.31
2019-05-02T11:52:06.932Z,20.29
2019-05-02T11:54:05.275Z,20.32
2019-05-02T11:55:01.923Z,20.22
2019-05-02T11:56:53.687Z,20.25
2019-05-02T11:57:53.037Z,20.14
2019-05-02T11:59:46.045Z,20.25
2019-05-02T12:00:49.588Z,20.25
2019-05-02T12:02:39.094Z,20.41
2019-05-02T12:03:39.145Z,20.31
2019-05-02T12:05:35.665Z,20.32
2019-05-02T12:06:33.167Z,20.11
2019-05-02T12:08:25.207Z,19.94
2019-05-02T12:09:25.252Z,20.00
2019-05-02T12:11:18.271Z,20.06
2019-05-02T12:12:18.333Z,20.04
2019-05-02T12:14:12.312Z,20.11
2019-05-02T12:15:12.003Z,20.06
2019-05-02T12:17:04.380Z,20.06
2019-05-02T12:18:04.446Z,20.06
2019-05-02T12:19:57.482Z,20.29
2019-05-02T12:20:57.500Z,20.29
2019-05-02T12:22:52.669Z,20.19
2019-05-02T12:23:52.610Z,20.31
2019-05-02T12:25:43.558Z,20.06
2019-05-02T12:26:46.408Z,20.03
2019-05-02T12:28:36.637Z,19.92
2019-05-02T12:29:36.674Z,20.02
2019-05-02T12:31:29.662Z,20.11
2019-05-02T12:32:29.728Z,20.00
2019-05-02T12:34:22.736Z,19.76
2019-05-02T12:35:22.827Z,19.55
2019-05-02T12:37:15.771Z,19.40
2019-05-02T12:38:15.845Z,19.39
2019-05-02T12:40:08.865Z,19.51
2019-05-02T12:41:19.504Z,19.51
2019-05-02T12:43:02.444Z,19.66
2019-05-02T12:44:02.389Z,19.81
2019-05-02T12:45:54.951Z,19.74
2019-05-02T12:46:55.010Z,19.85
2019-05-02T12:48:48.025Z,19.81
2019-05-02T12:49:48.067Z,19.84
2019-05-02T12:51:42.893Z,19.89
2019-05-02T12:52:42.937Z,20.10
2019-05-02T12:54:34.136Z,20.06
2019-05-02T12:55:34.178Z,20.19
2019-05-02T12:57:27.193Z,20.32
2019-05-02T12:58:27.229Z,20.36
2019-05-02T13:00:22.224Z,20.28
2019-05-02T13:01:21.834Z,20.47
2019-05-02T13:03:13.296Z,20.55
2019-05-02T13:04:13.347Z,20.37
2019-05-02T13:06:06.861Z,20.13
2019-05-02T13:07:06.910Z,20.24
2019-05-02T13:08:59.940Z,20.36
2019-05-02T13:09:59.973Z,20.36
2019-05-02T13:11:52.989Z,20.34
2019-05-02T13:12:53.250Z,20.24
2019-05-02T13:14:46.024Z,20.26
2019-05-02T13:15:46.089Z,20.26
2019-05-02T13:17:43.927Z,20.34
2019-05-02T13:18:39.137Z,20.24
2019-05-02T13:20:36.612Z,20.25
2019-05-02T13:21:40.146Z,20.26
2019-05-02T13:23:27.356Z,19.96
2019-05-02T13:24:29.215Z,19.91
2019-05-02T13:26:21.886Z,19.48
2019-05-02T13:27:18.307Z,19.26
2019-05-02T13:29:11.797Z,18.84
2019-05-02T13:30:12.423Z,18.75
2019-05-02T13:32:08.578Z,18.44
2019-05-02T13:33:04.419Z,18.44
2019-05-02T13:34:57.468Z,18.18
2019-05-02T13:35:57.459Z,18.10
2019-05-02T13:37:51.796Z,18.01
2019-05-02T13:38:51.885Z,17.89
2019-05-02T13:40:43.533Z,17.92
2019-05-02T13:41:43.742Z,17.83
2019-05-02T13:43:36.591Z,17.64
2019-05-02T13:44:36.614Z,17.51
2019-05-02T13:46:29.604Z,17.11
2019-05-02T13:47:29.661Z,16.91
2019-05-02T13:49:22.672Z,16.65
2019-05-02T13:50:22.728Z,16.61
2019-05-02T13:52:15.708Z,16.50
2019-05-02T13:53:15.765Z,16.49
2019-05-02T13:55:08.770Z,16.60
2019-05-02T13:56:08.816Z,16.60
2019-05-02T13:58:02.281Z,16.60
2019-05-02T13:59:02.692Z,16.56
2019-05-02T14:00:54.890Z,16.49
2019-05-02T14:01:54.935Z,16.46
2019-05-02T14:03:48.002Z,16.41
2019-05-02T14:04:48.021Z,16.32
2019-05-02T14:06:42.135Z,16.26
2019-05-02T14:07:42.905Z,16.15
2019-05-02T14:09:34.572Z,15.97
2019-05-02T14:10:39.532Z,15.83
2019-05-02T14:12:27.609Z,15.92
2019-05-02T14:13:27.671Z,15.79
2019-05-02T14:15:22.080Z,15.77
2019-05-02T14:16:22.143Z,15.79
2019-05-02T14:18:13.707Z,15.68
2019-05-02T14:19:13.768Z,15.72
2019-05-02T14:21:06.783Z,15.70
2019-05-02T14:22:06.818Z,15.67
2019-05-02T14:24:01.581Z,15.68
2019-05-02T14:25:01.754Z,15.65
2019-05-02T14:26:52.891Z,15.58
2019-05-02T14:27:55.577Z,15.61
2019-05-02T14:29:45.905Z,15.47
2019-05-02T14:30:46.437Z,15.43
2019-05-02T14:32:38.973Z,15.46
2019-05-02T14:33:39.020Z,15.29
2019-05-02T14:35:32.597Z,15.36
2019-05-02T14:36:32.565Z,15.37
2019-05-02T14:38:25.049Z,15.44
2019-05-02T14:39:25.111Z,15.43
2019-05-02T14:41:18.113Z,15.42
2019-05-02T14:42:22.133Z,15.47
2019-05-02T14:44:11.983Z,15.64
2019-05-02T14:45:26.648Z,15.58
2019-05-02T14:47:04.215Z,15.59
2019-05-02T14:48:18.428Z,15.67
2019-05-02T14:50:02.062Z,15.61
2019-05-02T14:50:57.301Z,15.58
2019-05-02T14:52:51.658Z,15.55
2019-05-02T14:53:52.320Z,15.46
2019-05-02T14:55:43.351Z,15.47
2019-05-02T14:56:47.596Z,15.43
2019-05-02T14:58:37.737Z,15.31
2019-05-02T14:59:36.455Z,15.39
2019-05-02T15:01:29.459Z,15.29
2019-05-02T15:02:32.100Z,15.36
2019-05-02T15:04:22.708Z,15.24
2019-05-02T15:05:27.925Z,15.33
2019-05-02T15:07:17.714Z,15.29
2019-05-02T15:08:16.107Z,15.21
2019-05-02T15:10:09.097Z,15.14
2019-05-02T15:11:09.328Z,15.09
2019-05-02T15:13:03.907Z,15.10
2019-05-02T15:14:03.104Z,15.07
2019-05-02T15:15:55.212Z,15.10
2019-05-02T15:16:58.220Z,15.15
2019-05-02T15:18:53.188Z,15.21
2019-05-02T15:19:48.301Z,15.25
2019-05-02T15:21:42.232Z,15.42
2019-05-02T15:22:42.445Z,15.40
2019-05-02T15:24:37.335Z,15.51
2019-05-02T15:25:34.430Z,15.40
2019-05-02T15:27:39.374Z,15.39
2019-05-02T15:28:30.314Z,15.10
2019-05-02T15:30:20.463Z,14.86
2019-05-02T15:31:24.308Z,14.81
2019-05-02T15:33:17.164Z,14.73
2019-05-02T15:34:13.550Z,14.69
2019-05-02T15:36:07.554Z,14.73
2019-05-02T15:37:06.592Z,14.68
2019-05-02T15:41:52.658Z,14.77
2019-05-02T15:42:56.745Z,14.82
2019-05-02T15:44:46.760Z,14.88
2019-05-02T15:45:45.727Z,14.91
2019-05-02T15:47:41.674Z,14.88
2019-05-02T15:48:38.775Z,14.84
2019-05-02T15:50:32.639Z,14.78
2019-05-02T15:51:32.881Z,14.72
2019-05-02T15:53:24.841Z,14.73
2019-05-02T15:54:24.885Z,14.60
2019-05-02T15:56:20.068Z,14.68
2019-05-02T15:57:21.758Z,14.54
2019-05-02T15:59:10.944Z,14.62
2019-05-02T16:00:15.460Z,14.59
2019-05-02T16:02:03.996Z,14.72
2019-05-02T16:03:04.559Z,14.70
2019-05-02T16:05:01.738Z,14.70
2019-05-02T16:05:57.079Z,14.72
2019-05-02T16:07:50.081Z,14.68
2019-05-02T16:08:51.776Z,14.72
2019-05-02T16:10:43.106Z,14.73
2019-05-02T16:11:43.532Z,14.62
2019-05-02T16:13:36.181Z,14.54
2019-05-02T16:14:36.293Z,14.53
2019-05-02T16:16:29.194Z,14.47
2019-05-02T16:17:29.287Z,14.45
2019-05-02T16:19:28.793Z,14.45
2019-05-02T16:20:24.041Z,14.44
2019-05-02T16:22:15.288Z,14.45
2019-05-02T16:23:19.058Z,14.53
2019-05-02T16:25:08.365Z,14.44
2019-05-02T16:26:08.941Z,14.48
2019-05-02T16:28:02.682Z,14.43
2019-05-02T16:29:02.924Z,14.36
2019-05-02T16:30:54.444Z,14.43
2019-05-02T16:31:54.963Z,14.40
2019-05-02T16:33:49.765Z,14.29
2019-05-02T16:34:47.523Z,14.36
2019-05-02T16:36:41.932Z,14.43
2019-05-02T16:37:42.087Z,14.40
2019-05-02T16:39:33.556Z,14.33
2019-05-02T16:40:34.925Z,14.51
2019-05-02T16:42:26.639Z,14.43
2019-05-02T16:43:26.662Z,14.62
2019-05-02T16:45:19.646Z,14.70
2019-05-02T16:46:21.603Z,14.77
2019-05-02T16:48:12.713Z,14.60
2019-05-02T16:49:15.708Z,14.72
2019-05-02T16:51:08.229Z,14.72
2019-05-02T16:52:08.426Z,14.73
2019-05-02T16:54:01.560Z,14.77
2019-05-02T16:54:58.865Z,14.73
2019-05-02T16:56:52.205Z,14.78
2019-05-02T16:57:56.308Z,14.70
2019-05-02T16:59:44.926Z,14.84
2019-05-02T17:00:45.610Z,14.73
2019-05-02T17:02:42.664Z,14.77
2019-05-02T17:03:37.997Z,14.70
2019-05-02T17:05:32.517Z,14.62
2019-05-02T17:06:32.538Z,14.59
2019-05-02T17:08:24.109Z,14.68
2019-05-02T17:09:24.232Z,14.70
2019-05-02T17:11:17.095Z,14.77
2019-05-02T17:12:17.134Z,14.68
2019-05-02T17:14:11.947Z,14.78
2019-05-02T17:15:13.895Z,14.63
2019-05-02T17:17:03.180Z,14.48
2019-05-02T17:18:04.910Z,14.45
2019-05-02T17:19:56.228Z,14.44
2019-05-02T17:20:57.017Z,14.37
2019-05-02T17:22:50.336Z,14.33
2019-05-02T17:23:51.804Z,14.36
2019-05-02T17:25:42.294Z,14.29
2019-05-02T17:26:42.351Z,14.25
2019-05-02T17:28:37.927Z,14.26
2019-05-02T17:29:35.396Z,14.32
2019-05-02T17:31:28.419Z,14.30
2019-05-02T17:32:28.910Z,14.29
2019-05-02T17:34:23.022Z,14.20
2019-05-02T17:35:22.115Z,14.17
2019-05-02T17:37:14.494Z,14.15
2019-05-02T17:38:14.539Z,14.00
2019-05-02T17:40:07.517Z,14.12
2019-05-02T17:41:08.040Z,14.03
2019-05-02T17:43:02.884Z,13.95
2019-05-02T17:44:00.614Z,13.96
2019-05-02T17:45:53.647Z,13.92
2019-05-02T17:46:58.552Z,14.05
2019-05-02T17:48:47.722Z,13.93
2019-05-02T17:49:46.763Z,13.96
2019-05-02T17:51:39.717Z,13.95
2019-05-02T17:52:39.775Z,13.95
2019-05-02T17:54:33.279Z,14.05
2019-05-02T17:55:40.443Z,13.95
2019-05-02T17:57:28.635Z,14.08
2019-05-02T17:58:26.363Z,14.00
2019-05-02T18:00:19.372Z,14.00
2019-05-02T18:01:21.647Z,13.93
2019-05-02T18:03:15.255Z,14.03
2019-05-02T18:04:16.287Z,14.04
2019-05-02T18:06:11.795Z,14.07
2019-05-02T18:07:05.498Z,14.08
2019-05-02T18:08:58.494Z,14.05
2019-05-02T18:09:58.546Z,14.07
2019-05-02T18:11:51.813Z,13.97
2019-05-02T18:12:56.601Z,14.07
2019-05-02T18:14:44.590Z,13.93
2019-05-02T18:15:44.637Z,13.92
2019-05-02T18:17:37.662Z,14.00
2019-05-02T18:18:42.654Z,14.07
2019-05-02T18:20:32.432Z,13.96
2019-05-02T18:21:32.369Z,14.05
2019-05-02T18:23:27.487Z,13.97
2019-05-02T18:24:23.768Z,13.93
2019-05-02T18:26:16.772Z,13.83
2019-05-02T18:27:16.823Z,13.92
2019-05-02T18:29:09.833Z,13.86
2019-05-02T18:30:09.871Z,13.74
2019-05-02T18:32:02.855Z,13.67
2019-05-02T18:33:07.091Z,13.71
2019-05-02T18:34:56.886Z,13.67
2019-05-02T18:35:55.960Z,13.63
2019-05-02T18:37:48.963Z,13.56
2019-05-02T18:38:52.466Z,13.57
2019-05-02T18:40:42.540Z,13.54
2019-05-02T18:41:45.999Z,13.57
2019-05-02T18:43:36.040Z,13.56
2019-05-02T18:44:35.095Z,13.53
2019-05-02T18:46:28.087Z,13.53
2019-05-02T18:47:28.134Z,13.50